Terminal Aerodrome Forecast
Issued by NWS

Home | Current Version | Previous Version | Text Only | Print | Product List | Glossary On
Versions: 1 2 3 4 5 6 7 8 9 10 11 12 13 14 15 16 17 18 19 20 21 22 23 24 25 26
863
FTUS41 KPBZ 010520
TAFFKL
TAF
KFKL 010520Z 0106/0206 13009KT 3SM -RA BR OVC005
     FM011200 19007KT P6SM VCSH OVC008
     FM011700 21006KT P6SM VCSH BKN015
     FM020000 VRB03KT P6SM VCSH BKN025
      AMD LTD TO CLD VIS AND WIND=

USA.gov is the U.S. government's official web portal to all federal, state and local government web resources and services.